createdAt,value
2018-02-10T00:00:23.059Z,61.67
2018-02-10T00:02:50.556Z,79.00
2018-02-10T00:05:18.038Z,72.00
2018-02-10T00:07:45.544Z,72.53
2018-02-10T00:10:13.031Z,80.13
2018-02-10T00:12:40.540Z,69.20
2018-02-10T00:15:08.024Z,79.20
2018-02-10T00:17:35.497Z,68.33
2018-02-10T00:20:03.001Z,64.87
2018-02-10T00:22:35.169Z,62.67
2018-02-10T00:25:02.722Z,73.73
2018-02-10T00:27:30.204Z,55.40
2018-02-10T00:29:57.680Z,64.27
2018-02-10T00:32:25.177Z,60.70
2018-02-10T00:34:53.422Z,75.70
2018-02-10T00:37:20.941Z,62.20
2018-02-10T00:39:48.416Z,56.97
2018-02-10T00:42:15.906Z,51.53
2018-02-10T00:44:43.380Z,68.33
2018-02-10T00:47:11.650Z,61.87
2018-02-10T00:49:39.888Z,59.47
2018-02-10T00:52:07.402Z,59.43
2018-02-10T00:54:34.862Z,49.63
2018-02-10T00:57:02.374Z,45.73
2018-02-10T00:59:29.839Z,48.73
2018-02-10T01:01:57.335Z,54.97
2018-02-10T01:04:24.814Z,42.43
2018-02-10T01:06:52.355Z,47.77
2018-02-10T01:09:19.836Z,47.03
2018-02-10T01:11:47.364Z,45.43
2018-02-10T01:14:14.944Z,50.70
2018-02-10T01:16:42.541Z,49.70
2018-02-10T01:19:10.006Z,44.33
2018-02-10T01:21:37.492Z,47.77
2018-02-10T01:24:05.784Z,46.13
2018-02-10T01:26:33.242Z,43.70
2018-02-10T01:29:00.745Z,40.97
2018-02-10T01:31:28.225Z,46.13
2018-02-10T01:33:55.717Z,51.20
2018-02-10T01:36:23.221Z,38.43
2018-02-10T01:38:50.702Z,50.67
2018-02-10T01:41:18.952Z,39.63
2018-02-10T01:43:46.450Z,37.97
2018-02-10T01:46:14.692Z,44.90
2018-02-10T01:48:42.194Z,37.23
2018-02-10T01:51:09.667Z,44.57
2018-02-10T01:53:38.052Z,39.03
2018-02-10T01:56:05.519Z,42.47
2018-02-10T01:58:33.025Z,35.40
2018-02-10T02:01:01.272Z,39.00
2018-02-10T02:03:28.766Z,39.67
2018-02-10T02:05:57.025Z,34.57
2018-02-10T02:08:24.548Z,35.13
2018-02-10T02:10:52.057Z,41.90
2018-02-10T02:13:20.316Z,37.60
2018-02-10T02:15:47.818Z,41.20
2018-02-10T02:18:15.314Z,39.00
2018-02-10T02:20:42.824Z,40.40
2018-02-10T02:23:10.294Z,44.80
2018-02-10T02:25:37.855Z,45.70
2018-02-10T02:28:05.356Z,48.27
2018-02-10T02:30:32.827Z,42.73
2018-02-10T02:33:00.299Z,41.23
2018-02-10T02:35:28.572Z,35.77
2018-02-10T02:37:56.800Z,37.60
2018-02-10T02:40:24.336Z,40.57
2018-02-10T02:42:52.552Z,42.47
2018-02-10T02:45:20.063Z,38.90
2018-02-10T02:47:47.567Z,38.47
2018-02-10T02:50:15.053Z,42.40
2018-02-10T02:52:43.736Z,45.83
2018-02-10T02:55:11.972Z,41.00
2018-02-10T02:57:39.443Z,43.97
2018-02-10T03:00:06.952Z,46.30
2018-02-10T03:02:34.438Z,36.43
2018-02-10T03:05:01.985Z,41.23
2018-02-10T03:07:29.487Z,47.87
2018-02-10T03:09:56.983Z,33.87
2018-02-10T03:12:24.451Z,36.13
2018-02-10T03:14:51.946Z,36.53
2018-02-10T03:17:19.456Z,28.23
2018-02-10T03:19:46.956Z,41.80
2018-02-10T03:22:14.449Z,46.13
2018-02-10T03:24:41.943Z,33.87
2018-02-10T03:27:09.426Z,34.10
2018-02-10T03:29:36.915Z,32.70
2018-02-10T03:32:04.398Z,35.40
2018-02-10T03:34:32.692Z,35.97
2018-02-10T03:37:00.160Z,37.80
2018-02-10T03:39:27.652Z,40.87
2018-02-10T03:41:55.138Z,40.70
2018-02-10T03:44:23.404Z,40.27
2018-02-10T03:46:50.877Z,36.30
2018-02-10T03:49:19.165Z,44.47
2018-02-10T03:51:46.621Z,36.03
2018-02-10T03:54:14.128Z,39.10
2018-02-10T03:56:41.595Z,34.10
2018-02-10T03:59:09.083Z,39.43
2018-02-10T04:01:37.334Z,39.60
2018-02-10T04:04:04.840Z,39.33
2018-02-10T04:06:32.312Z,37.70
2018-02-10T04:08:59.911Z,40.57
2018-02-10T04:11:27.379Z,40.37
2018-02-10T04:13:55.640Z,37.67
2018-02-10T04:16:23.147Z,40.63
2018-02-10T04:18:50.636Z,47.23
2018-02-10T04:21:18.120Z,57.90
2018-02-10T04:23:45.629Z,58.67
2018-02-10T04:26:13.109Z,60.13
2018-02-10T04:28:40.612Z,63.63
2018-02-10T04:31:08.852Z,53.87
2018-02-10T04:33:36.356Z,50.87
2018-02-10T04:36:03.819Z,59.70
2018-02-10T04:38:31.328Z,55.57
2018-02-10T04:40:58.794Z,61.57
2018-02-10T04:43:26.311Z,56.23
2018-02-10T04:45:53.807Z,59.67
2018-02-10T04:48:21.304Z,59.07
2018-02-10T04:50:48.783Z,64.47
2018-02-10T04:53:16.304Z,58.47
2018-02-10T04:55:44.537Z,52.93
2018-02-10T04:58:11.999Z,49.10
2018-02-10T05:00:39.520Z,54.07
2018-02-10T05:03:07.012Z,55.43
2018-02-10T05:05:34.484Z,61.50
2018-02-10T05:08:01.987Z,50.70
2018-02-10T05:10:29.463Z,51.53
2018-02-10T05:12:56.944Z,49.73
2018-02-10T05:15:24.448Z,54.10
2018-02-10T05:17:52.674Z,54.37
2018-02-10T05:20:20.188Z,49.77
2018-02-10T05:22:48.476Z,52.50
2018-02-10T05:25:15.939Z,50.57
2018-02-10T05:27:43.406Z,44.33
2018-02-10T05:30:10.910Z,53.70
2018-02-10T05:32:38.384Z,52.43
2018-02-10T05:35:06.647Z,47.40
2018-02-10T05:37:34.116Z,57.57
2018-02-10T05:40:02.384Z,49.33
2018-02-10T05:42:30.624Z,49.07
2018-02-10T05:44:58.136Z,49.93
2018-02-10T05:47:25.617Z,49.23
2018-02-10T05:49:53.107Z,46.67
2018-02-10T05:52:20.571Z,40.93
2018-02-10T05:54:48.071Z,36.30
2018-02-10T05:57:15.544Z,41.90
2018-02-10T05:59:43.048Z,40.73
2018-02-10T06:02:10.538Z,44.93
2018-02-10T06:04:38.803Z,47.27
2018-02-10T06:07:07.043Z,35.07
2018-02-10T06:09:34.555Z,31.60
2018-02-10T06:12:02.019Z,41.27
2018-02-10T06:14:29.511Z,38.60
2018-02-10T06:16:56.992Z,27.83
2018-02-10T06:19:24.485Z,38.87
2018-02-10T06:21:51.968Z,38.73
2018-02-10T06:24:19.576Z,35.63
2018-02-10T06:26:47.037Z,30.97
2018-02-10T06:29:15.281Z,36.33
2018-02-10T06:31:42.771Z,38.47
2018-02-10T06:34:10.248Z,36.27
2018-02-10T06:36:38.525Z,40.80
2018-02-10T06:39:06.752Z,42.40
2018-02-10T06:41:34.242Z,48.23
2018-02-10T06:44:02.475Z,43.07
2018-02-10T06:46:29.999Z,45.77
2018-02-10T06:48:57.464Z,43.03
2018-02-10T06:51:24.974Z,44.23
2018-02-10T06:53:52.456Z,47.80
2018-02-10T06:56:20.712Z,45.57
2018-02-10T06:58:48.201Z,40.80
2018-02-10T07:01:15.710Z,43.73
2018-02-10T07:03:43.166Z,44.77
2018-02-10T07:06:10.667Z,50.13
2018-02-10T07:08:38.960Z,48.83
2018-02-10T07:11:06.435Z,45.83
2018-02-10T07:13:33.898Z,45.87
2018-02-10T07:16:01.408Z,40.40
2018-02-10T07:18:28.910Z,42.67
2018-02-10T07:20:56.384Z,52.60
2018-02-10T07:23:24.088Z,34.73
2018-02-10T07:25:52.435Z,44.33
2018-02-10T07:28:19.884Z,37.03
2018-02-10T07:30:48.158Z,40.40
2018-02-10T07:33:15.781Z,37.47
2018-02-10T07:35:43.273Z,39.73
2018-02-10T07:38:10.745Z,38.07
2018-02-10T07:40:38.244Z,42.30
2018-02-10T07:43:06.487Z,42.07
2018-02-10T07:45:33.988Z,39.33
2018-02-10T07:48:02.218Z,35.00
2018-02-10T07:50:29.735Z,35.90
2018-02-10T07:52:57.212Z,36.60
2018-02-10T07:55:24.712Z,32.30
2018-02-10T07:57:52.951Z,30.37
2018-02-10T08:00:20.442Z,28.57
2018-02-10T08:02:47.896Z,31.93
2018-02-10T08:05:15.400Z,26.97
2018-02-10T08:07:42.887Z,25.83
2018-02-10T08:10:10.381Z,21.50
2018-02-10T08:12:38.630Z,23.53
2018-02-10T08:15:06.152Z,21.07
2018-02-10T08:17:33.615Z,23.50
2018-02-10T08:20:01.135Z,25.33
2018-02-10T08:22:29.388Z,24.60
2018-02-10T08:24:56.911Z,20.80
2018-02-10T08:27:24.380Z,25.53
2018-02-10T08:29:51.881Z,23.40
2018-02-10T08:32:20.111Z,23.87
2018-02-10T08:34:47.609Z,25.53
2018-02-10T08:37:15.084Z,23.40
2018-02-10T08:39:42.592Z,23.30
2018-02-10T08:42:10.075Z,21.37
2018-02-10T08:44:37.578Z,21.00
2018-02-10T08:47:05.119Z,19.43
2018-02-10T08:49:32.591Z,20.30
2018-02-10T08:52:00.084Z,18.80
2018-02-10T08:54:27.574Z,21.10
2018-02-10T08:56:55.046Z,28.57
2018-02-10T08:59:22.571Z,26.83
2018-02-10T09:01:50.058Z,29.60
2018-02-10T09:04:18.316Z,25.73
2018-02-10T09:06:45.797Z,21.30
2018-02-10T09:09:14.072Z,22.70
2018-02-10T09:11:42.319Z,22.23
2018-02-10T09:14:09.811Z,23.37
2018-02-10T09:16:37.306Z,23.53
2018-02-10T09:19:04.944Z,24.77
2018-02-10T09:21:32.412Z,23.43
2018-02-10T09:23:59.906Z,27.37
2018-02-10T09:26:27.389Z,26.97
2018-02-10T09:28:55.793Z,28.60
2018-02-10T09:31:23.263Z,27.80
2018-02-10T09:33:50.752Z,31.73
2018-02-10T09:36:18.251Z,33.60
2018-02-10T09:38:45.724Z,32.60
2018-02-10T09:41:13.238Z,31.23
2018-02-10T09:43:40.714Z,35.67
2018-02-10T09:46:08.982Z,36.50
2018-02-10T09:48:37.246Z,33.60
2018-02-10T09:51:04.887Z,41.37
2018-02-10T09:53:41.291Z,45.00
2018-02-10T09:56:10.308Z,39.57
2018-02-10T09:58:37.784Z,37.43
2018-02-10T10:01:05.281Z,38.60
2018-02-10T10:03:32.756Z,34.27
2018-02-10T10:06:01.057Z,31.13
2018-02-10T10:08:31.143Z,37.67
2018-02-10T10:10:58.767Z,34.33
2018-02-10T10:13:26.240Z,32.83
2018-02-10T10:15:53.749Z,38.80
2018-02-10T10:18:21.320Z,33.87
2018-02-10T10:20:48.808Z,38.50
2018-02-10T10:23:16.281Z,35.73
2018-02-10T10:25:43.775Z,34.67
2018-02-10T10:28:11.273Z,33.67
2018-02-10T10:30:38.774Z,28.90
2018-02-10T10:33:07.029Z,32.23
2018-02-10T10:35:34.581Z,30.83
2018-02-10T10:38:02.068Z,30.50
2018-02-10T10:40:30.359Z,29.23
2018-02-10T10:42:57.867Z,26.17
2018-02-10T10:45:25.373Z,28.33
2018-02-10T10:47:53.635Z,28.80
2018-02-10T10:50:21.900Z,24.30
2018-02-10T10:52:49.384Z,22.67
2018-02-10T10:55:16.874Z,28.60
2018-02-10T10:57:44.363Z,25.77
2018-02-10T11:00:11.871Z,28.10
2018-02-10T11:02:39.382Z,27.30
2018-02-10T11:05:06.898Z,23.87
2018-02-10T11:07:34.379Z,22.17
2018-02-10T11:10:01.874Z,23.13
2018-02-10T11:12:30.126Z,27.23
2018-02-10T11:14:57.648Z,21.53
2018-02-10T11:17:25.131Z,26.93
2018-02-10T11:19:52.693Z,25.67
2018-02-10T11:22:20.163Z,25.07
2018-02-10T11:24:47.698Z,27.93
2018-02-10T11:27:15.411Z,31.53
2018-02-10T11:29:43.704Z,24.53
2018-02-10T11:32:11.172Z,33.60
2018-02-10T11:34:38.675Z,26.33
2018-02-10T11:37:06.155Z,24.00
2018-02-10T11:39:34.426Z,25.50
2018-02-10T11:42:01.915Z,26.10
2018-02-10T11:44:29.426Z,23.03
2018-02-10T11:46:56.910Z,26.60
2018-02-10T11:49:25.173Z,24.90
2018-02-10T11:51:52.642Z,27.03
2018-02-10T11:54:20.917Z,24.23
2018-02-10T11:56:49.163Z,24.33
2018-02-10T11:59:16.646Z,21.30
2018-02-10T12:01:44.905Z,20.47
2018-02-10T12:04:12.395Z,21.80
2018-02-10T12:06:40.669Z,22.07
2018-02-10T12:09:08.972Z,20.30
2018-02-10T12:11:36.442Z,20.33
2018-02-10T12:14:03.958Z,21.00
2018-02-10T12:16:32.203Z,22.23
2018-02-10T12:18:59.689Z,20.97
2018-02-10T12:21:27.979Z,25.40
2018-02-10T12:23:55.545Z,20.50
2018-02-10T12:26:23.028Z,19.37
2018-02-10T12:28:50.504Z,19.40
2018-02-10T12:31:17.999Z,18.90
2018-02-10T12:33:46.321Z,18.70
2018-02-10T12:36:13.838Z,20.33
2018-02-10T12:38:42.079Z,20.37
2018-02-10T12:41:09.561Z,18.00
2018-02-10T12:43:37.795Z,19.23
2018-02-10T12:46:05.302Z,20.63
2018-02-10T12:48:39.168Z,19.50
2018-02-10T12:51:06.661Z,16.33
2018-02-10T12:53:34.900Z,17.93
2018-02-10T12:56:02.356Z,19.53
2018-02-10T12:58:29.868Z,16.23
2018-02-10T13:00:57.390Z,21.17
2018-02-10T13:03:24.868Z,20.03
2018-02-10T13:05:53.133Z,22.40
2018-02-10T13:08:20.600Z,21.00
2018-02-10T13:10:48.875Z,27.07
2018-02-10T13:13:16.352Z,15.07
2018-02-10T13:15:44.618Z,20.83
2018-02-10T13:18:12.870Z,22.27
2018-02-10T13:20:40.756Z,22.77
2018-02-10T13:23:09.008Z,19.37
2018-02-10T13:25:36.497Z,20.83
2018-02-10T13:28:04.792Z,26.07
2018-02-10T13:30:32.268Z,23.93
2018-02-10T13:32:59.779Z,23.57
2018-02-10T13:35:28.031Z,27.77
2018-02-10T13:37:56.332Z,21.83
2018-02-10T13:40:23.821Z,23.03
2018-02-10T13:42:51.332Z,28.80
2018-02-10T13:45:18.816Z,31.00
2018-02-10T13:47:47.080Z,33.00
2018-02-10T13:50:15.326Z,26.80
2018-02-10T13:52:42.819Z,18.37
2018-02-10T13:55:11.064Z,17.70
2018-02-10T13:57:38.568Z,24.23
2018-02-10T14:00:06.052Z,19.77
2018-02-10T14:02:33.543Z,15.23
2018-02-10T14:05:01.034Z,16.37
2018-02-10T14:07:29.320Z,15.73
2018-02-10T14:09:56.849Z,14.83
2018-02-10T14:12:24.371Z,15.83
2018-02-10T14:14:51.870Z,16.57
2018-02-10T14:17:20.176Z,37.93
2018-02-10T14:19:47.650Z,25.27
2018-02-10T14:22:15.156Z,18.00
2018-02-10T14:24:43.055Z,13.87
2018-02-10T14:27:10.598Z,31.97
2018-02-10T14:29:38.078Z,22.17
2018-02-10T14:32:05.584Z,27.33
2018-02-10T14:34:33.046Z,17.30
2018-02-10T14:37:00.558Z,14.73
2018-02-10T14:39:28.019Z,15.53
2018-02-10T14:41:55.525Z,17.63
2018-02-10T14:44:22.996Z,17.90
2018-02-10T14:46:50.503Z,15.23
2018-02-10T14:49:17.973Z,17.27
2018-02-10T14:51:45.475Z,15.40
2018-02-10T14:54:13.721Z,14.67
2018-02-10T14:56:41.206Z,15.10
2018-02-10T14:59:09.488Z,14.83
2018-02-10T15:01:37.743Z,13.97
2018-02-10T15:04:05.274Z,13.60
2018-02-10T15:06:32.749Z,14.00
2018-02-10T15:09:00.260Z,14.00
2018-02-10T15:11:27.768Z,13.97
2018-02-10T15:13:55.325Z,14.67
2018-02-10T15:16:22.786Z,13.10
2018-02-10T15:18:50.304Z,17.90
2018-02-10T15:21:17.764Z,13.60
2018-02-10T15:23:45.272Z,14.63
2018-02-10T15:26:12.763Z,16.73
2018-02-10T15:28:41.008Z,14.07
2018-02-10T15:31:20.486Z,13.60
2018-02-10T15:34:00.001Z,13.23
2018-02-10T15:36:28.253Z,13.80
2018-02-10T15:38:55.755Z,12.17
2018-02-10T15:41:23.234Z,12.80
2018-02-10T15:43:50.746Z,13.83
2018-02-10T15:46:18.997Z,15.67
2018-02-10T15:48:46.513Z,15.07
2018-02-10T15:51:14.001Z,15.77
2018-02-10T15:53:41.508Z,16.73
2018-02-10T15:56:08.989Z,13.13
2018-02-10T15:58:36.492Z,11.67
2018-02-10T16:01:03.979Z,18.33
2018-02-10T16:03:32.257Z,18.87
2018-02-10T16:06:00.549Z,17.43
2018-02-10T16:08:28.042Z,16.53
2018-02-10T16:10:55.540Z,14.90
2018-02-10T16:13:23.804Z,21.33
2018-02-10T16:15:51.294Z,16.30
2018-02-10T16:18:18.834Z,18.70
2018-02-10T16:20:47.074Z,21.27
2018-02-10T16:23:14.581Z,26.17
2018-02-10T16:25:42.066Z,18.97
2018-02-10T16:28:09.599Z,20.67
2018-02-10T16:30:37.059Z,19.50
2018-02-10T16:33:04.555Z,23.23
2018-02-10T16:35:32.075Z,25.13
2018-02-10T16:37:59.582Z,22.27
2018-02-10T16:40:27.084Z,21.13
2018-02-10T16:42:54.573Z,21.20
2018-02-10T16:45:22.081Z,29.47
2018-02-10T16:47:50.327Z,36.10
2018-02-10T16:50:17.830Z,30.90
2018-02-10T16:52:46.072Z,24.37
2018-02-10T16:55:13.581Z,27.53
2018-02-10T16:57:41.051Z,26.10
2018-02-10T17:00:08.591Z,23.30
2018-02-10T17:02:36.100Z,32.07
2018-02-10T17:05:03.608Z,31.37
2018-02-10T17:07:31.078Z,41.67
2018-02-10T17:09:58.586Z,30.10
2018-02-10T17:12:26.064Z,23.90
2018-02-10T17:14:54.333Z,27.67
2018-02-10T17:17:22.581Z,32.47
2018-02-10T17:19:50.201Z,33.70
2018-02-10T17:22:17.692Z,27.00
2018-02-10T17:24:45.207Z,17.47
2018-02-10T17:27:12.694Z,13.17
2018-02-10T17:29:40.198Z,16.73
2018-02-10T17:32:08.442Z,11.80
2018-02-10T17:34:35.984Z,11.80
2018-02-10T17:37:03.449Z,10.73
2018-02-10T17:39:30.987Z,13.57
2018-02-10T17:41:58.454Z,13.73
2018-02-10T17:44:25.981Z,14.23
2018-02-10T17:46:54.243Z,9.23
2018-02-10T17:49:21.719Z,12.00
2018-02-10T17:51:50.053Z,13.33
2018-02-10T17:54:17.597Z,11.83
2018-02-10T17:56:45.067Z,10.93
2018-02-10T17:59:12.556Z,21.40
2018-02-10T18:01:41.606Z,17.60
2018-02-10T18:04:09.126Z,14.70
2018-02-10T18:06:36.593Z,14.40
2018-02-10T18:09:04.111Z,19.73
2018-02-10T18:11:31.612Z,21.97
2018-02-10T18:13:59.084Z,16.77
2018-02-10T18:16:26.603Z,14.83
2018-02-10T18:18:54.868Z,16.20
2018-02-10T18:21:23.142Z,17.87
2018-02-10T18:23:51.390Z,16.57
2018-02-10T18:26:18.905Z,24.20
2018-02-10T18:28:46.387Z,23.43
2018-02-10T18:31:13.910Z,25.00
2018-02-10T18:33:42.255Z,20.57
2018-02-10T18:36:09.754Z,25.67
2018-02-10T18:38:37.226Z,23.50
2018-02-10T18:41:04.818Z,21.43
2018-02-10T18:43:32.297Z,19.80
2018-02-10T18:46:00.542Z,24.03
2018-02-10T18:48:28.485Z,18.23
2018-02-10T18:50:55.973Z,20.37
2018-02-10T18:53:23.459Z,24.90
2018-02-10T18:55:50.976Z,28.47
2018-02-10T18:58:19.247Z,27.37
2018-02-10T19:00:46.728Z,18.93
2018-02-10T19:03:14.245Z,15.60
2018-02-10T19:05:41.718Z,22.00
2018-02-10T19:08:09.211Z,25.47
2018-02-10T19:10:36.692Z,36.50
2018-02-10T19:13:05.001Z,28.67
2018-02-10T19:15:32.491Z,32.07
2018-02-10T19:18:00.025Z,35.53
2018-02-10T19:20:27.508Z,28.87
2018-02-10T19:22:55.139Z,20.17
2018-02-10T19:25:22.635Z,23.77
2018-02-10T19:27:50.141Z,26.57
2018-02-10T19:30:17.670Z,23.50
2018-02-10T19:32:45.184Z,28.17
2018-02-10T19:35:12.691Z,38.80
2018-02-10T19:37:40.194Z,39.27
2018-02-10T19:40:07.689Z,46.80
2018-02-10T19:42:35.307Z,29.77
2018-02-10T19:45:02.824Z,31.33
2018-02-10T19:47:30.299Z,26.20
2018-02-10T19:49:57.881Z,25.83
2018-02-10T19:52:25.364Z,30.97
2018-02-10T19:54:52.929Z,27.60
2018-02-10T19:57:20.420Z,30.47
2018-02-10T19:59:48.697Z,30.77
2018-02-10T20:02:16.931Z,40.03
2018-02-10T20:04:44.457Z,35.63
2018-02-10T20:07:11.957Z,43.20
2018-02-10T20:09:39.448Z,32.57
2018-02-10T20:12:07.715Z,23.30
2018-02-10T20:14:35.218Z,26.63
2018-02-10T20:17:02.708Z,28.67
2018-02-10T20:19:30.238Z,33.40
2018-02-10T20:21:57.732Z,29.20
2018-02-10T20:24:25.257Z,30.60
2018-02-10T20:26:52.738Z,28.43
2018-02-10T20:29:20.991Z,28.07
2018-02-10T20:31:48.476Z,28.17
2018-02-10T20:34:15.968Z,21.90
2018-02-10T20:36:43.475Z,27.70
2018-02-10T20:39:11.181Z,29.50
2018-02-10T20:41:38.683Z,25.70
2018-02-10T20:44:06.215Z,22.93
2018-02-10T20:46:34.468Z,25.50
2018-02-10T20:49:01.992Z,24.43
2018-02-10T20:51:29.536Z,22.83
2018-02-10T20:53:57.010Z,18.60
2018-02-10T20:56:24.527Z,23.97
2018-02-10T20:58:52.777Z,22.73
2018-02-10T21:01:20.294Z,22.47
2018-02-10T21:03:47.771Z,23.00
2018-02-10T21:06:15.284Z,21.40
2018-02-10T21:08:42.761Z,22.33
2018-02-10T21:11:10.260Z,22.80
2018-02-10T21:13:37.757Z,25.03
2018-02-10T21:16:05.265Z,27.23
2018-02-10T21:18:32.748Z,23.70
2018-02-10T21:21:00.430Z,29.63
2018-02-10T21:23:27.969Z,25.27
2018-02-10T21:25:56.280Z,24.20
2018-02-10T21:28:23.788Z,22.73
2018-02-10T21:30:51.332Z,22.07
2018-02-10T21:33:18.838Z,21.13
2018-02-10T21:35:47.062Z,21.47
2018-02-10T21:38:14.567Z,23.07
2018-02-10T21:40:42.822Z,18.90
2018-02-10T21:43:10.334Z,18.47
2018-02-10T21:45:37.825Z,22.63
2018-02-10T21:48:05.348Z,16.60
2018-02-10T21:50:32.837Z,20.63
2018-02-10T21:53:00.394Z,21.50
2018-02-10T21:55:27.864Z,22.80
2018-02-10T21:57:55.394Z,20.87
2018-02-10T22:00:22.892Z,17.40
2018-02-10T22:02:51.578Z,18.97
2018-02-10T22:05:19.822Z,17.47
2018-02-10T22:07:47.303Z,15.17
2018-02-10T22:10:14.804Z,19.10
2018-02-10T22:12:42.318Z,20.77
2018-02-10T22:15:09.798Z,22.77
2018-02-10T22:17:38.067Z,18.77
2018-02-10T22:20:06.302Z,19.63
2018-02-10T22:22:33.813Z,25.27
2018-02-10T22:25:02.110Z,18.27
2018-02-10T22:27:29.607Z,23.83
2018-02-10T22:29:57.079Z,20.90
2018-02-10T22:32:24.590Z,20.63
2018-02-10T22:34:52.064Z,19.10
2018-02-10T22:37:19.576Z,18.70
2018-02-10T22:39:47.088Z,20.87
2018-02-10T22:42:14.607Z,17.13
2018-02-10T22:44:42.474Z,20.63
2018-02-10T22:47:09.949Z,15.67
2018-02-10T22:49:37.443Z,21.00
2018-02-10T22:52:04.924Z,20.23
2018-02-10T22:54:33.195Z,16.70
2018-02-10T22:57:00.660Z,16.30
2018-02-10T22:59:28.936Z,19.43
2018-02-10T23:01:57.188Z,19.70
2018-02-10T23:04:24.680Z,18.40
2018-02-10T23:06:52.165Z,17.63
2018-02-10T23:09:19.685Z,16.20
2018-02-10T23:11:47.924Z,19.17
2018-02-10T23:14:15.449Z,16.07
2018-02-10T23:16:42.928Z,16.57
2018-02-10T23:19:10.475Z,14.47
2018-02-10T23:21:37.953Z,16.13
2018-02-10T23:24:05.483Z,17.17
2018-02-10T23:26:32.946Z,16.00
2018-02-10T23:29:00.453Z,11.60
2018-02-10T23:31:27.932Z,15.70
2018-02-10T23:33:56.195Z,14.57
2018-02-10T23:36:23.670Z,14.53
2018-02-10T23:38:51.168Z,13.17
2018-02-10T23:41:18.637Z,14.73
2018-02-10T23:43:46.134Z,16.43
2018-02-10T23:46:14.367Z,14.63
2018-02-10T23:48:41.862Z,16.70
2018-02-10T23:51:10.101Z,15.23
2018-02-10T23:53:38.390Z,15.80
2018-02-10T23:56:05.870Z,14.40
2018-02-10T23:58:34.144Z,17.33
